Alden, Illinois
Current Conditions -  °F | °C
As of 2:55 PM on Tuesday 21 Oct 2014 (Local Time) from KBUU Reporting Station
Overcast Overcast  
Wind Chill: 43°   Ceiling: 2800
Heat Index: 47°   Visibility: 10mi
Dew Point: 36°   Wind: 8mph
Humidity: 67%   Direction: 10°N
Pressure: 30.21"   Gusts: NA
Location:  42.46°N, 88.52°W
Report Text: KBUU 211955Z AUTO 01007KT 10SM OVC028 08/02 A3021 RMK AO2 T00830024
Loading
Personal Weather Stations






























Interactive Weather Map New forecast layout! Learn more

10-Day Weather Forecast

Advertisements
Track Severe Weather on mobile